Time;durP1;ratioP1;P1;durP2;ratioP2;P2;SDS_P1;SDS_P2;PMS_P1;PMS_P2;Temp;Humidity;BMP_temperature;BMP_pressure;BME280_temperature;BME280_humidity;BME280_pressure;Samples;Min_cycle;Max_cycle;Signal;HPM_P1;HPM_P2
2022/08/03 00:01:35;;;;;;;3.80;3.50;;;19.40;99.90;;;;;;6074760;23;20409;-83
2022/08/03 00:04:03;;;;;;;3.50;3.27;;;19.40;99.90;;;;;;6075121;23;20505;-82
2022/08/03 00:06:30;;;;;;;3.90;3.60;;;19.40;99.90;;;;;;6049741;23;20432;-83
2022/08/03 00:09:06;;;;;;;4.77;3.80;;;19.20;99.90;;;;;;6074371;23;20392;-83
2022/08/03 00:11:34;;;;;;;3.73;3.43;;;19.30;99.90;;;;;;6073052;23;20480;-81
2022/08/03 00:14:01;;;;;;;6.30;4.30;;;19.10;99.90;;;;;;6073393;23;20421;-83
2022/08/03 00:16:28;;;;;;;6.23;3.30;;;19.00;99.90;;;;;;6047861;23;20405;-81
2022/08/03 00:18:55;;;;;;;3.83;3.27;;;18.90;99.90;;;;;;6072366;23;20421;-81
2022/08/03 00:21:22;;;;;;;3.90;3.50;;;19.00;99.90;;;;;;6073467;23;20463;-83
2022/08/03 00:23:49;;;;;;;3.57;3.27;;;18.90;99.90;;;;;;6073015;23;20398;-82
2022/08/03 00:26:19;;;;;;;4.10;3.63;;;19.00;99.90;;;;;;6073047;23;20408;-83
2022/08/03 00:28:47;;;;;;;4.27;3.97;;;19.00;99.90;;;;;;6074206;23;20404;-81
2022/08/03 00:31:13;;;;;;;3.73;3.40;;;18.70;99.90;;;;;;6048577;23;20433;-81
2022/08/03 00:33:40;;;;;;;3.73;3.43;;;18.60;99.90;;;;;;6073868;23;20643;-81
2022/08/03 00:36:28;;;;;;;4.27;3.87;;;18.70;99.90;;;;;;6052536;23;20401;-84
2022/08/03 00:38:55;;;;;;;5.17;4.20;;;18.70;99.90;;;;;;6072204;23;20843;-82
2022/08/03 00:41:22;;;;;;;4.40;4.00;;;18.70;99.90;;;;;;6047407;23;20623;-82
2022/08/03 00:43:49;;;;;;;3.83;3.50;;;18.80;99.90;;;;;;6075177;23;20484;-82
2022/08/03 00:46:17;;;;;;;3.97;3.60;;;18.60;99.90;;;;;;6073633;23;20473;-83
2022/08/03 00:48:52;;;;;;;4.00;3.70;;;18.70;99.90;;;;;;6073465;23;20386;-83
2022/08/03 00:51:21;;;;;;;4.27;3.80;;;18.60;99.90;;;;;;6073402;23;20405;-83
2022/08/03 00:53:48;;;;;;;4.00;3.60;;;18.60;99.90;;;;;;6047998;23;20479;-82
2022/08/03 00:56:16;;;;;;;5.23;4.60;;;18.60;99.90;;;;;;6073302;23;20408;-84
2022/08/03 00:58:45;;;;;;;4.20;3.80;;;18.50;99.90;;;;;;6073396;23;20704;-83
2022/08/03 01:01:12;;;;;;;4.83;4.27;;;18.60;99.90;;;;;;6073242;23;20513;-83
2022/08/03 01:03:40;;;;;;;4.20;3.90;;;18.50;99.90;;;;;;6073619;23;20432;-83
2022/08/03 01:06:18;;;;;;;4.13;3.73;;;18.50;99.90;;;;;;6073244;23;20455;-82
2022/08/03 01:08:58;;;;;;;6.73;4.20;;;18.40;99.90;;;;;;6046961;23;20468;-82
2022/08/03 01:11:39;;;;;;;6.30;4.93;;;18.20;99.90;;;;;;6073063;23;20682;-82
2022/08/03 01:14:34;;;;;;;4.30;3.90;;;18.20;99.90;;;;;;6073001;23;20825;-84
2022/08/03 01:17:20;;;;;;;3.60;3.30;;;18.20;99.90;;;;;;6075241;23;20397;-82
2022/08/03 01:19:59;;;;;;;4.33;3.83;;;18.10;99.90;;;;;;6074504;23;20453;-81
2022/08/03 01:22:27;;;;;;;5.60;5.10;;;18.10;99.90;;;;;;6081615;23;20407;-84
2022/08/03 01:25:09;;;;;;;4.43;4.00;;;17.90;99.90;;;;;;6086637;23;20416;-83
2022/08/03 01:28:08;;;;;;;3.77;3.50;;;17.90;99.90;;;;;;6052290;23;20371;-83
2022/08/03 01:30:39;;;;;;;4.30;3.90;;;17.90;99.90;;;;;;6065890;23;20422;-83
2022/08/03 01:33:13;;;;;;;4.90;4.50;;;17.90;99.90;;;;;;6073600;23;20694;-83
2022/08/03 01:35:44;;;;;;;4.40;3.90;;;17.90;99.90;;;;;;6072427;23;20385;-86
2022/08/03 01:38:17;;;;;;;3.63;3.33;;;17.80;99.90;;;;;;6073281;23;20405;-84
2022/08/03 01:40:46;;;;;;;3.87;3.33;;;17.70;99.90;;;;;;6072881;23;20627;-83
2022/08/03 01:43:18;;;;;;;3.90;3.60;;;17.80;99.90;;;;;;6072971;23;20376;-83
2022/08/03 01:46:07;;;;;;;5.13;4.63;;;17.70;99.90;;;;;;6075234;23;20432;-83
2022/08/03 01:48:40;;;;;;;4.73;4.33;;;17.80;99.90;;;;;;6072729;23;20404;-81
2022/08/03 01:51:09;;;;;;;4.73;4.43;;;17.90;99.90;;;;;;6072698;23;20428;-82
2022/08/03 01:53:41;;;;;;;5.17;4.67;;;17.90;99.90;;;;;;6072754;23;20417;-82
2022/08/03 01:56:10;;;;;;;4.83;4.40;;;17.90;99.90;;;;;;6072750;23;20374;-82
2022/08/03 01:58:40;;;;;;;5.00;3.57;;;18.00;99.90;;;;;;6073591;23;20980;-84
2022/08/03 02:01:09;;;;;;;6.80;4.40;;;17.70;99.90;;;;;;6072763;23;20500;-82
2022/08/03 02:03:39;;;;;;;5.33;4.90;;;17.50;99.90;;;;;;6048133;23;20546;-82
2022/08/03 02:06:31;;;;;;;6.67;5.23;;;17.60;99.90;;;;;;6051422;23;20485;-83
2022/08/03 02:09:20;;;;;;;5.37;4.97;;;17.60;99.90;;;;;;6079765;23;20384;-85
2022/08/03 02:11:49;;;;;;;5.30;4.80;;;17.50;99.90;;;;;;6084294;23;20389;-78
2022/08/03 02:14:20;;;;;;;4.97;4.47;;;17.40;99.90;;;;;;6057277;23;20396;-84
2022/08/03 02:16:49;;;;;;;6.57;5.37;;;17.60;99.90;;;;;;6047258;23;20461;-83
2022/08/03 02:19:17;;;;;;;3.47;3.23;;;17.50;99.90;;;;;;6072062;23;20500;-84
2022/08/03 02:21:45;;;;;;;5.03;4.53;;;17.60;99.90;;;;;;6071525;23;20442;-83
2022/08/03 02:24:27;;;;;;;5.00;4.60;;;17.60;99.90;;;;;;6072162;23;20375;-84
2022/08/03 02:26:55;;;;;;;6.60;5.43;;;17.60;99.90;;;;;;6072026;23;20403;-84
2022/08/03 02:29:25;;;;;;;5.30;4.47;;;17.50;99.90;;;;;;6072822;23;20404;-83
2022/08/03 02:32:10;;;;;;;4.80;4.30;;;17.50;99.90;;;;;;6073679;23;20439;-85
2022/08/03 02:34:40;;;;;;;5.93;5.40;;;17.60;99.90;;;;;;6047430;23;20750;-86
2022/08/03 02:37:09;;;;;;;8.07;4.40;;;17.60;99.90;;;;;;6071545;23;20675;-84
2022/08/03 02:39:38;;;;;;;4.83;4.37;;;17.60;99.90;;;;;;6071189;23;20382;-84
2022/08/03 02:42:09;;;;;;;8.00;4.70;;;17.70;99.90;;;;;;6072524;23;20806;-85
2022/08/03 02:44:42;;;;;;;4.43;4.10;;;17.50;99.90;;;;;;6074876;23;20388;-85
2022/08/03 02:47:12;;;;;;;6.80;6.03;;;17.50;99.90;;;;;;6074724;23;20460;-84
2022/08/03 02:49:40;;;;;;;4.83;4.40;;;17.50;99.90;;;;;;6050210;23;20603;-84
2022/08/03 02:52:20;;;;;;;4.77;4.40;;;17.70;99.90;;;;;;6076193;23;20338;-86
2022/08/03 02:54:49;;;;;;;5.13;4.50;;;17.70;99.90;;;;;;6079043;23;20392;-85
2022/08/03 02:57:20;;;;;;;5.93;4.70;;;17.80;99.90;;;;;;6081362;23;20391;-84
2022/08/03 02:59:48;;;;;;;8.50;4.80;;;18.10;99.90;;;;;;6076953;23;20405;-83
2022/08/03 03:02:17;;;;;;;7.60;5.03;;;18.10;99.90;;;;;;6073395;23;20464;-83
2022/08/03 03:04:45;;;;;;;6.50;5.33;;;18.00;99.90;;;;;;6073946;23;20459;-82
2022/08/03 03:07:34;;;;;;;5.90;5.37;;;17.90;99.90;;;;;;6073611;23;20430;-85
2022/08/03 03:10:20;;;;;;;5.70;5.20;;;18.00;99.90;;;;;;6073756;23;20390;-83
2022/08/03 03:12:51;;;;;;;6.60;5.07;;;17.90;99.90;;;;;;6073440;23;20761;-83
2022/08/03 03:15:24;;;;;;;6.73;5.33;;;18.00;99.90;;;;;;6074306;23;20404;-83
2022/08/03 03:17:53;;;;;;;5.60;4.90;;;18.00;99.90;;;;;;6048012;23;20944;-83
2022/08/03 03:20:21;;;;;;;10.00;6.20;;;17.90;99.90;;;;;;6072538;23;20437;-83
2022/08/03 03:22:58;;;;;;;5.30;4.70;;;17.90;99.90;;;;;;6072675;23;20444;-83
2022/08/03 03:25:29;;;;;;;5.63;5.13;;;17.90;99.90;;;;;;6071934;23;20415;-85
2022/08/03 03:27:57;;;;;;;7.40;5.27;;;18.10;99.90;;;;;;6089003;23;20413;-84
2022/08/03 03:30:26;;;;;;;5.67;5.20;;;18.10;99.90;;;;;;6060126;23;20504;-83
2022/08/03 03:32:53;;;;;;;5.80;5.30;;;18.00;99.90;;;;;;6075611;23;20415;-85
2022/08/03 03:35:21;;;;;;;6.83;6.10;;;18.00;99.90;;;;;;6074893;23;20720;-84
2022/08/03 03:37:48;;;;;;;12.07;6.60;;;18.00;99.90;;;;;;6074865;23;20413;-84
2022/08/03 03:40:15;;;;;;;5.50;5.00;;;18.00;99.90;;;;;;6074373;23;20399;-83
2022/08/03 03:42:46;;;;;;;5.90;4.80;;;18.00;99.90;;;;;;6074285;23;20409;-82
2022/08/03 03:45:14;;;;;;;6.17;5.07;;;17.90;99.90;;;;;;6073305;23;20479;-84
2022/08/03 03:47:41;;;;;;;5.67;5.17;;;17.80;99.90;;;;;;6073588;23;20404;-81
2022/08/03 03:50:09;;;;;;;5.97;5.50;;;18.00;99.90;;;;;;6073349;23;20379;-83
2022/08/03 03:52:39;;;;;;;5.53;5.10;;;18.00;99.90;;;;;;6047845;23;20368;-82
2022/08/03 03:55:06;;;;;;;6.80;5.40;;;17.90;99.90;;;;;;6073505;23;20411;-82
2022/08/03 03:57:34;;;;;;;6.70;5.30;;;17.90;99.90;;;;;;6074573;23;20903;-83
2022/08/03 04:00:02;;;;;;;5.20;4.70;;;17.90;99.90;;;;;;6048995;23;20715;-83
2022/08/03 04:02:29;;;;;;;6.57;5.90;;;17.90;99.90;;;;;;6072931;23;20441;-83
2022/08/03 04:10:57;;;;;;;5.97;5.43;;;18.00;99.90;;;;;;6072717;23;20404;-84
2022/08/03 04:13:30;;;;;;;5.60;5.07;;;17.90;99.90;;;;;;6047017;23;20494;-82
2022/08/03 04:15:59;;;;;;;6.10;5.60;;;17.90;99.90;;;;;;6074343;23;20620;-84
2022/08/03 04:18:30;;;;;;;5.60;5.10;;;17.90;99.90;;;;;;6048737;23;20817;-84
2022/08/03 04:21:03;;;;;;;6.40;5.70;;;17.80;99.90;;;;;;6072497;23;21031;-82
2022/08/03 04:23:34;;;;;;;5.93;5.37;;;17.80;99.90;;;;;;6073798;23;20740;-84
2022/08/03 04:26:04;;;;;;;5.93;5.07;;;17.80;99.90;;;;;;6081514;23;20419;-84
2022/08/03 04:28:32;;;;;;;9.93;4.90;;;17.80;99.90;;;;;;6060660;23;20451;-84
2022/08/03 04:31:02;;;;;;;5.03;4.70;;;17.80;99.90;;;;;;6074540;23;20409;-83
2022/08/03 04:33:33;;;;;;;5.67;4.73;;;17.80;99.90;;;;;;6073907;23;20625;-83
2022/08/03 04:36:05;;;;;;;8.67;5.90;;;17.70;99.90;;;;;;6081655;23;20380;-83
2022/08/03 04:38:41;;;;;;;6.80;6.07;;;17.70;99.90;;;;;;6081893;23;20461;-80
2022/08/03 04:41:09;;;;;;;6.73;6.13;;;17.80;99.90;;;;;;6076884;23;20521;-80
2022/08/03 04:43:39;;;;;;;6.93;4.67;;;18.10;99.90;;;;;;6075530;23;20532;-81
2022/08/03 04:46:07;;;;;;;5.67;5.17;;;18.00;99.90;;;;;;6074394;23;20693;-81
2022/08/03 04:48:36;;;;;;;8.20;6.33;;;17.90;99.90;;;;;;6074661;23;20431;-83
2022/08/03 04:51:09;;;;;;;5.93;5.43;;;18.00;99.90;;;;;;6073627;23;20778;-83
2022/08/03 04:53:36;;;;;;;5.47;5.00;;;17.90;99.90;;;;;;6075201;23;20423;-82
2022/08/03 04:56:06;;;;;;;5.63;5.13;;;17.80;99.90;;;;;;6086110;23;20455;-84
2022/08/03 04:58:33;;;;;;;5.70;5.13;;;17.70;99.90;;;;;;6086971;23;20431;-83
2022/08/03 05:01:04;;;;;;;6.90;6.20;;;17.80;99.90;;;;;;6087270;23;20577;-84
2022/08/03 05:03:32;;;;;;;5.97;5.43;;;17.80;99.90;;;;;;6086991;23;20408;-84
2022/08/03 05:06:02;;;;;;;7.07;6.37;;;18.10;99.90;;;;;;6086132;23;20447;-82
2022/08/03 05:08:41;;;;;;;6.57;5.97;;;18.00;99.90;;;;;;6086823;23;20347;-85
2022/08/03 05:11:17;;;;;;;8.43;6.47;;;18.20;99.90;;;;;;6061839;23;20462;-80
2022/08/03 05:13:46;;;;;;;6.47;5.87;;;18.10;99.90;;;;;;6056359;23;20625;-79
2022/08/03 05:16:14;;;;;;;6.07;5.37;;;18.20;99.90;;;;;;6081013;23;20478;-84
2022/08/03 05:18:44;;;;;;;6.47;5.80;;;18.60;99.90;;;;;;6081777;23;20373;-83
2022/08/03 05:21:17;;;;;;;5.60;5.10;;;18.90;99.90;;;;;;6080601;23;20440;-83
2022/08/03 05:23:43;;;;;;;6.47;5.97;;;18.90;99.90;;;;;;6055158;23;20406;-82
2022/08/03 05:26:10;;;;;;;5.00;4.60;;;18.90;99.90;;;;;;6078496;23;20401;-83
2022/08/03 05:28:38;;;;;;;7.40;6.60;;;18.90;99.90;;;;;;6079868;23;20711;-83
2022/08/03 05:31:16;;;;;;;5.60;4.90;;;19.00;99.90;;;;;;6086487;23;20389;-84
2022/08/03 05:33:44;;;;;;;7.13;6.43;;;19.20;99.90;;;;;;6061659;23;20392;-82
2022/08/03 05:36:11;;;;;;;6.27;5.67;;;19.30;99.90;;;;;;6081212;23;20390;-82
2022/08/03 05:38:41;;;;;;;4.63;4.23;;;19.20;99.90;;;;;;6054963;23;20707;-83
2022/08/03 05:41:10;;;;;;;8.00;4.63;;;19.40;99.90;;;;;;6056553;23;20437;-80
2022/08/03 05:43:50;;;;;;;7.03;5.90;;;19.70;99.90;;;;;;6078144;23;20577;-81
2022/08/03 05:46:19;;;;;;;5.73;4.80;;;19.90;99.90;;;;;;6078935;23;20811;-81
2022/08/03 05:48:47;;;;;;;9.90;5.20;;;20.10;99.90;;;;;;6053726;23;20464;-81
2022/08/03 05:51:15;;;;;;;5.17;4.60;;;20.30;99.90;;;;;;6053991;23;20394;-85
2022/08/03 05:53:42;;;;;;;5.30;4.63;;;20.50;99.90;;;;;;6054137;23;20451;-81
2022/08/03 05:56:10;;;;;;;5.50;5.00;;;20.60;99.90;;;;;;6053800;23;20384;-84
2022/08/03 05:58:45;;;;;;;5.50;4.77;;;20.60;99.90;;;;;;6054471;23;20395;-83
2022/08/03 06:01:15;;;;;;;7.07;5.30;;;20.80;99.90;;;;;;6074605;23;20425;-81
2022/08/03 06:03:43;;;;;;;6.50;5.10;;;20.90;99.90;;;;;;6049590;23;20488;-81
2022/08/03 06:06:10;;;;;;;5.43;4.93;;;21.20;99.90;;;;;;6071886;23;20446;-83
2022/08/03 06:08:40;;;;;;;4.87;4.47;;;21.60;99.90;;;;;;6048035;23;20586;-82
2022/08/03 06:11:11;;;;;;;4.93;4.43;;;21.70;99.90;;;;;;6073532;23;20429;-81
2022/08/03 06:13:38;;;;;;;5.00;4.60;;;21.90;99.90;;;;;;6047261;23;20475;-81
2022/08/03 06:16:05;;;;;;;5.67;5.03;;;22.20;99.90;;;;;;6073452;23;20440;-81
2022/08/03 06:18:32;;;;;;;4.40;4.00;;;22.40;99.90;;;;;;6073621;23;20420;-83
2022/08/03 06:20:59;;;;;;;4.90;4.37;;;22.70;99.90;;;;;;6071186;23;20474;-82
2022/08/03 06:23:43;;;;;;;5.83;4.27;;;23.00;99.90;;;;;;6071426;23;20391;-83
2022/08/03 06:26:25;;;;;;;5.53;4.30;;;23.40;99.90;;;;;;6071224;23;20381;-82
2022/08/03 06:28:53;;;;;;;6.60;4.40;;;23.80;99.90;;;;;;6071573;23;20386;-80
2022/08/03 06:31:24;;;;;;;5.37;4.87;;;24.30;99.90;;;;;;6073314;23;20381;-81
2022/08/03 06:34:00;;;;;;;4.80;4.27;;;25.00;99.90;;;;;;6048040;23;20437;-80
2022/08/03 06:36:50;;;;;;;10.90;4.80;;;25.90;99.90;;;;;;6071783;23;20376;-81
2022/08/03 06:39:19;;;;;;;5.50;4.80;;;26.40;99.90;;;;;;6072185;23;20392;-82
2022/08/03 06:41:49;;;;;;;4.90;4.07;;;26.60;99.90;;;;;;6071303;23;20454;-81
2022/08/03 06:44:16;;;;;;;4.07;3.70;;;26.50;99.90;;;;;;6049251;23;20377;-80
2022/08/03 06:46:43;;;;;;;5.10;3.73;;;26.90;99.90;;;;;;6072165;23;20787;-81
2022/08/03 06:49:10;;;;;;;4.20;3.80;;;27.40;99.90;;;;;;6072241;23;20415;-80
2022/08/03 06:51:38;;;;;;;6.47;3.43;;;28.40;99.90;;;;;;6071913;23;20505;-80
2022/08/03 06:54:28;;;;;;;3.77;3.47;;;29.00;99.90;;;;;;6051298;23;20410;-86
2022/08/03 06:56:58;;;;;;;4.20;3.90;;;29.70;99.90;;;;;;6073758;23;20388;-83
2022/08/03 06:59:25;;;;;;;3.70;3.40;;;30.30;99.90;;;;;;6073908;23;20458;-83
2022/08/03 07:02:12;;;;;;;4.00;3.57;;;31.10;99.90;;;;;;6073942;23;20449;-85
2022/08/03 07:04:49;;;;;;;3.70;3.40;;;31.20;99.90;;;;;;6073712;23;20445;-83
2022/08/03 07:07:16;;;;;;;5.20;2.60;;;31.30;99.90;;;;;;6072257;23;20406;-83
2022/08/03 07:09:43;;;;;;;3.40;3.10;;;32.40;99.90;;;;;;6080895;23;20506;-82
2022/08/03 07:12:28;;;;;;;2.80;2.60;;;33.10;99.90;;;;;;6086678;23;20393;-81
2022/08/03 07:15:00;;;;;;;3.27;3.00;;;33.20;99.90;;;;;;6082792;23;20440;-84
2022/08/03 07:17:31;;;;;;;3.77;3.23;;;34.20;99.50;;;;;;6081084;23;20421;-80
2022/08/03 07:19:59;;;;;;;8.03;3.80;;;34.40;98.00;;;;;;6082427;23;20409;-80
2022/08/03 07:22:27;;;;;;;4.23;2.70;;;35.30;95.80;;;;;;6060693;23;20434;-83
2022/08/03 07:24:57;;;;;;;4.03;3.20;;;35.90;94.20;;;;;;6057320;23;20386;-82
2022/08/03 07:27:27;;;;;;;2.70;2.50;;;36.40;93.00;;;;;;6075664;23;20405;-82
2022/08/03 07:29:57;;;;;;;3.33;3.13;;;37.30;90.70;;;;;;6077990;23;20422;-81
2022/08/03 07:32:30;;;;;;;3.23;2.93;;;37.70;87.70;;;;;;6088622;23;20382;-81
2022/08/03 07:34:57;;;;;;;4.40;3.60;;;37.60;85.00;;;;;;6088359;23;20445;-83
2022/08/03 07:37:29;;;;;;;3.43;2.03;;;38.30;83.20;;;;;;6077274;23;20446;-82
2022/08/03 07:40:00;;;;;;;4.90;3.27;;;39.30;79.00;;;;;;6077573;23;20627;-83
2022/08/03 07:42:28;;;;;;;2.63;2.50;;;39.50;77.30;;;;;;6077842;23;20456;-85
2022/08/03 07:45:00;;;;;;;2.47;2.27;;;38.60;74.60;;;;;;6049122;23;20416;-83
2022/08/03 07:47:29;;;;;;;3.00;2.70;;;38.80;72.30;;;;;;6073253;23;20486;-82
2022/08/03 07:50:03;;;;;;;3.97;2.93;;;38.50;72.20;;;;;;6050865;23;20382;-85
2022/08/03 07:52:48;;;;;;;2.47;2.37;;;39.10;71.20;;;;;;6048436;23;20875;-85
2022/08/03 07:55:19;;;;;;;3.20;3.00;;;39.90;68.10;;;;;;6049434;23;20379;-81
2022/08/03 07:58:08;;;;;;;3.10;2.40;;;38.90;69.20;;;;;;6049366;23;20416;-83
2022/08/03 08:00:37;;;;;;;2.17;1.97;;;39.00;68.40;;;;;;6073472;23;20755;-83
2022/08/03 08:03:04;;;;;;;7.70;2.90;;;39.80;65.80;;;;;;6048606;23;20412;-82
2022/08/03 08:05:31;;;;;;;2.60;2.33;;;40.60;65.60;;;;;;6073266;23;20712;-83
2022/08/03 08:08:01;;;;;;;3.17;2.97;;;41.50;62.60;;;;;;6049075;23;20497;-85
2022/08/03 08:10:29;;;;;;;2.90;2.60;;;41.30;62.70;;;;;;6075074;23;20437;-81
2022/08/03 08:12:56;;;;;;;2.93;2.33;;;40.40;62.30;;;;;;6076366;23;20498;-83
2022/08/03 08:15:26;;;;;;;2.57;2.40;;;40.80;60.70;;;;;;6075886;23;20437;-83
2022/08/03 08:17:56;;;;;;;2.47;2.37;;;41.70;58.60;;;;;;6076982;23;20511;-86
2022/08/03 08:20:28;;;;;;;2.90;2.30;;;41.60;58.00;;;;;;6077212;23;20750;-87
2022/08/03 08:23:00;;;;;;;2.30;2.10;;;40.10;59.20;;;;;;6076842;23;20484;-83
2022/08/03 08:25:30;;;;;;;2.60;2.40;;;40.90;59.70;;;;;;6053943;23;20406;-82
2022/08/03 08:28:04;;;;;;;2.33;2.13;;;42.20;58.70;;;;;;6079413;23;20465;-82
2022/08/03 08:30:57;;;;;;;2.40;2.30;;;42.90;56.90;;;;;;6082282;23;20394;-85
2022/08/03 08:33:25;;;;;;;2.40;2.30;;;42.80;54.90;;;;;;6078958;23;20444;-81
2022/08/03 08:36:08;;;;;;;4.03;2.40;;;42.00;56.10;;;;;;6077706;23;20406;-83
2022/08/03 08:38:43;;;;;;;2.03;1.93;;;42.30;55.80;;;;;;6052779;23;20390;-85
2022/08/03 08:41:12;;;;;;;2.70;2.37;;;41.40;56.70;;;;;;6077571;23;20402;-83
2022/08/03 08:43:39;;;;;;;2.17;2.07;;;42.60;55.80;;;;;;6054984;23;20405;-82
2022/08/03 08:46:11;;;;;;;2.90;2.70;;;42.70;55.20;;;;;;6087028;23;20404;-82
2022/08/03 08:48:50;;;;;;;2.43;2.20;;;41.50;56.00;;;;;;6085032;23;20406;-79
2022/08/03 08:51:28;;;;;;;2.17;2.07;;;41.70;55.50;;;;;;6084027;23;20816;-85
2022/08/03 08:54:20;;;;;;;4.30;2.33;;;41.00;55.90;;;;;;6016359;23;20835;-81
2022/08/03 08:56:51;;;;;;;2.60;2.40;;;39.70;57.10;;;;;;6075180;23;20388;-85
2022/08/03 08:59:19;;;;;;;3.87;2.80;;;40.70;57.50;;;;;;6055439;23;20409;-84
2022/08/03 09:01:48;;;;;;;2.30;2.20;;;42.90;55.30;;;;;;6052077;23;20414;-81
2022/08/03 09:04:20;;;;;;;2.23;2.13;;;44.10;51.70;;;;;;6076823;23;20574;-81
2022/08/03 09:06:55;;;;;;;2.47;2.37;;;44.50;50.80;;;;;;6078735;23;20406;-88
2022/08/03 09:09:42;;;;;;;3.50;2.67;;;44.60;50.00;;;;;;6056402;23;20402;-82
2022/08/03 09:12:36;;;;;;;2.63;2.00;;;44.60;50.90;;;;;;6076421;23;20513;-83
2022/08/03 09:15:25;;;;;;;3.50;2.30;;;44.80;50.90;;;;;;6053368;23;20383;-81
2022/08/03 09:17:57;;;;;;;2.20;2.10;;;44.00;50.10;;;;;;6079851;23;20375;-82
2022/08/03 09:20:28;;;;;;;4.40;2.33;;;42.30;51.10;;;;;;6073484;23;20777;-79
2022/08/03 09:23:07;;;;;;;2.40;2.20;;;43.30;50.50;;;;;;6073878;23;20759;-84
2022/08/03 09:25:57;;;;;;;2.17;2.00;;;43.50;49.20;;;;;;6052386;23;20748;-84
2022/08/03 09:28:34;;;;;;;2.27;2.17;;;42.30;51.90;;;;;;6072669;23;20386;-86
2022/08/03 09:31:38;;;;;;;2.40;2.20;;;42.10;50.90;;;;;;6092935;23;20425;-80
2022/08/03 09:34:16;;;;;;;2.00;1.80;;;42.10;50.20;;;;;;6086390;23;20736;-84
2022/08/03 09:36:45;;;;;;;3.20;2.90;;;40.60;52.20;;;;;;6050127;23;20390;-82
2022/08/03 09:39:15;;;;;;;2.80;2.17;;;36.50;58.10;;;;;;6072627;23;20442;-80
2022/08/03 09:42:04;;;;;;;3.40;3.10;;;34.60;62.30;;;;;;6073349;23;20407;-81
2022/08/03 09:44:47;;;;;;;2.60;2.40;;;34.00;64.80;;;;;;6072151;23;20458;-86
2022/08/03 09:47:26;;;;;;;2.60;2.03;;;33.80;65.40;;;;;;6073743;23;20608;-86
2022/08/03 09:50:04;;;;;;;2.10;1.90;;;33.10;65.60;;;;;;6075553;23;20547;-84
2022/08/03 09:52:40;;;;;;;5.13;2.33;;;32.20;69.10;;;;;;6075481;23;20479;-82
2022/08/03 09:55:19;;;;;;;2.37;2.17;;;32.20;70.00;;;;;;6075322;23;20405;-85
2022/08/03 09:58:09;;;;;;;17.20;9.17;;;32.30;70.00;;;;;;6075605;23;20446;-83
2022/08/03 10:01:00;;;;;;;2.80;2.60;;;31.90;70.80;;;;;;6075868;23;20397;-82
2022/08/03 10:03:29;;;;;;;4.07;2.37;;;31.60;70.80;;;;;;6074276;23;20454;-83
2022/08/03 10:05:57;;;;;;;2.23;2.13;;;31.30;72.70;;;;;;6050511;23;20432;-82
2022/08/03 10:08:26;;;;;;;5.13;3.80;;;31.10;72.70;;;;;;6075457;23;20478;-81
2022/08/03 10:10:53;;;;;;;2.60;2.40;;;30.60;74.90;;;;;;6075499;23;20396;-83
2022/08/03 10:13:22;;;;;;;4.53;2.53;;;30.50;74.90;;;;;;6076245;23;20466;-84
2022/08/03 10:15:49;;;;;;;2.67;2.47;;;30.30;78.10;;;;;;6074673;23;20418;-83
2022/08/03 10:18:36;;;;;;;2.80;2.60;;;30.40;77.60;;;;;;6074939;23;20399;-82
2022/08/03 10:21:07;;;;;;;3.97;2.30;;;30.50;78.00;;;;;;6074346;23;20431;-81
2022/08/03 10:23:37;;;;;;;4.90;2.23;;;30.70;79.00;;;;;;6074246;23;20444;-83
2022/08/03 10:26:10;;;;;;;2.37;2.17;;;31.00;75.80;;;;;;6074789;23;20402;-81
2022/08/03 10:28:45;;;;;;;2.53;2.30;;;31.30;78.80;;;;;;6074092;23;20413;-86
2022/08/03 10:31:15;;;;;;;2.80;2.60;;;31.30;77.30;;;;;;6074134;23;20456;-81
2022/08/03 10:33:44;;;;;;;2.17;2.07;;;31.30;75.40;;;;;;6073702;23;20511;-81
2022/08/03 10:36:22;;;;;;;5.30;2.70;;;31.20;76.70;;;;;;6077231;23;20394;-83
2022/08/03 10:38:55;;;;;;;2.63;2.43;;;31.10;78.10;;;;;;6084108;23;20400;-80
2022/08/03 10:41:25;;;;;;;3.23;2.90;;;31.00;78.80;;;;;;6093531;23;20393;-83
2022/08/03 10:44:15;;;;;;;3.00;2.00;;;31.10;79.20;;;;;;6091267;23;20403;-81
2022/08/03 10:46:47;;;;;;;2.03;1.90;;;31.20;78.50;;;;;;6090666;23;20459;-81
2022/08/03 10:49:17;;;;;;;3.83;2.27;;;31.30;79.20;;;;;;6083569;23;20397;-83
2022/08/03 10:52:01;;;;;;;3.63;3.43;;;31.50;77.50;;;;;;6073894;23;20401;-80
2022/08/03 10:57:52;;;;;;;3.40;3.10;;;31.20;78.50;;;;;;6071922;23;20428;-80
2022/08/03 11:00:26;;;;;;;9.30;2.33;;;31.20;81.40;;;;;;6048722;23;20762;-82
2022/08/03 11:03:10;;;;;;;2.50;2.30;;;31.40;77.40;;;;;;6074177;23;20589;-84
2022/08/03 11:05:39;;;;;;;2.07;1.93;;;31.30;76.50;;;;;;6071726;23;20402;-84
2022/08/03 11:08:30;;;;;;;2.63;2.43;;;31.00;77.30;;;;;;6073493;23;20549;-84
2022/08/03 11:11:27;;;;;;;2.50;2.30;;;31.10;78.30;;;;;;6049148;23;20384;-80
2022/08/03 11:14:02;;;;;;;2.20;2.10;;;31.50;77.40;;;;;;6072671;23;20825;-82
2022/08/03 11:16:33;;;;;;;2.30;2.10;;;31.70;76.20;;;;;;6073794;23;20412;-83
2022/08/03 11:19:03;;;;;;;2.60;2.40;;;31.90;75.00;;;;;;6072047;23;20416;-80
2022/08/03 11:21:48;;;;;;;2.57;2.37;;;31.70;74.00;;;;;;6071622;23;20412;-79
2022/08/03 11:24:42;;;;;;;2.77;2.57;;;31.50;74.50;;;;;;6073075;23;20410;-81
2022/08/03 11:27:16;;;;;;;2.20;1.97;;;31.20;74.30;;;;;;6072489;23;20457;-82
2022/08/03 11:30:07;;;;;;;2.60;2.10;;;31.30;74.80;;;;;;6086156;23;20404;-86
2022/08/03 11:32:41;;;;;;;2.00;1.90;;;31.10;75.30;;;;;;6084594;23;20594;-83
2022/08/03 11:35:28;;;;;;;2.40;2.20;;;30.90;77.60;;;;;;6074777;23;20441;-82
2022/08/03 11:37:58;;;;;;;2.70;2.50;;;30.50;76.70;;;;;;6073293;23;20483;-81
2022/08/03 11:40:52;;;;;;;2.73;2.30;;;30.60;78.40;;;;;;6072832;23;20370;-84
2022/08/03 11:43:33;;;;;;;3.80;3.50;;;30.80;80.50;;;;;;6047820;23;20684;-85
2022/08/03 11:46:16;;;;;;;3.23;2.63;;;31.20;78.90;;;;;;6073700;23;20530;-82
2022/08/03 11:49:03;;;;;;;2.53;2.33;;;31.40;75.90;;;;;;6051420;23;20483;-83
2022/08/03 11:51:38;;;;;;;4.17;2.90;;;31.40;77.00;;;;;;6026664;23;20543;-80
2022/08/03 11:54:06;;;;;;;7.03;2.13;;;31.70;76.50;;;;;;6073716;23;20809;-83
2022/08/03 11:56:47;;;;;;;2.07;1.97;;;31.70;73.50;;;;;;6072369;23;20543;-84
2022/08/03 11:59:17;;;;;;;2.20;1.90;;;31.70;70.80;;;;;;6047729;23;20540;-80
2022/08/03 12:01:48;;;;;;;1.97;1.87;;;31.80;71.20;;;;;;6073303;23;20467;-83
2022/08/03 12:04:15;;;;;;;2.30;2.10;;;31.80;70.00;;;;;;6073311;23;20410;-85
2022/08/03 12:06:58;;;;;;;1.87;1.77;;;31.70;71.10;;;;;;6074846;23;20429;-81
2022/08/03 12:09:25;;;;;;;2.97;1.87;;;31.60;71.60;;;;;;6071819;23;20568;-81
2022/08/03 12:11:52;;;;;;;2.40;2.20;;;31.80;70.10;;;;;;6071075;23;20480;-82
2022/08/03 12:14:28;;;;;;;2.20;2.00;;;31.90;70.60;;;;;;6069687;23;20444;-81
2022/08/03 12:17:15;;;;;;;1.63;1.53;;;32.20;68.90;;;;;;6071429;23;20401;-82
2022/08/03 12:19:43;;;;;;;1.80;1.70;;;32.20;69.20;;;;;;6046270;23;20662;-81
2022/08/03 12:22:10;;;;;;;2.73;2.53;;;32.20;70.60;;;;;;6072207;23;20884;-80
2022/08/03 12:24:42;;;;;;;2.57;2.37;;;32.20;70.10;;;;;;6070355;23;20512;-81
2022/08/03 12:27:09;;;;;;;2.33;2.13;;;32.10;70.50;;;;;;6046767;23;20591;-84
2022/08/03 12:29:36;;;;;;;2.37;2.17;;;32.20;71.20;;;;;;6071614;23;20421;-85
2022/08/03 12:32:06;;;;;;;3.23;2.93;;;32.40;71.20;;;;;;6071468;23;20415;-84
2022/08/03 12:34:49;;;;;;;2.70;2.50;;;32.50;70.90;;;;;;6071048;23;20552;-80
2022/08/03 12:37:22;;;;;;;2.60;2.40;;;32.40;69.60;;;;;;6070408;23;20440;-83
2022/08/03 12:40:00;;;;;;;2.00;1.90;;;32.30;70.60;;;;;;6046870;23;20404;-79
2022/08/03 12:42:37;;;;;;;2.17;2.03;;;31.90;71.60;;;;;;6072153;23;20389;-83
2022/08/03 12:45:26;;;;;;;2.27;2.10;;;31.70;72.60;;;;;;6049087;23;20406;-79
2022/08/03 12:47:56;;;;;;;2.33;2.13;;;31.40;73.20;;;;;;6072974;23;20405;-84
2022/08/03 12:50:28;;;;;;;2.87;2.67;;;31.20;73.60;;;;;;6073444;23;20378;-83
2022/08/03 12:52:58;;;;;;;2.50;2.30;;;30.90;72.40;;;;;;6069612;23;20509;-81
2022/08/03 12:55:32;;;;;;;2.00;1.90;;;30.80;75.00;;;;;;6071970;23;20425;-81
2022/08/03 12:58:34;;;;;;;2.10;2.00;;;30.90;71.90;;;;;;6074773;23;20416;-84
2022/08/03 13:01:07;;;;;;;2.27;2.17;;;31.50;71.90;;;;;;6083032;23;20400;-84
2022/08/03 13:03:43;;;;;;;2.00;1.90;;;31.70;71.40;;;;;;6082926;23;20398;-81
2022/08/03 13:06:21;;;;;;;2.10;1.90;;;31.90;70.60;;;;;;6074156;23;20421;-84
2022/08/03 13:08:48;;;;;;;2.53;2.17;;;32.10;70.00;;;;;;6074389;23;20401;-84
2022/08/03 13:11:20;;;;;;;2.83;2.67;;;32.30;68.50;;;;;;6074165;23;20405;-80
2022/08/03 13:13:48;;;;;;;2.30;2.20;;;32.20;68.70;;;;;;6049577;23;20441;-81
2022/08/03 13:16:15;;;;;;;2.57;2.37;;;32.10;67.90;;;;;;6075637;23;20481;-81
2022/08/03 13:18:47;;;;;;;4.30;2.40;;;31.90;67.30;;;;;;6049041;23;20418;-83
2022/08/03 13:21:15;;;;;;;2.00;1.90;;;31.90;66.60;;;;;;6074713;23;20401;-82
2022/08/03 13:23:43;;;;;;;1.90;1.80;;;31.80;67.60;;;;;;6048679;23;20560;-80
2022/08/03 13:26:11;;;;;;;2.17;2.00;;;31.70;68.20;;;;;;6073065;23;20434;-82